Time;durP1;ratioP1;P1;durP2;ratioP2;P2;SDS_P1;SDS_P2;PMS_P1;PMS_P2;Temp;Humidity;BMP_temperature;BMP_pressure;BME280_temperature;BME280_humidity;BME280_pressure;Samples;Min_cycle;Max_cycle;Signal;HPM_P1;HPM_P2
2021/10/29 00:00:20;;;;;;;11.77;7.85;;;;;;;;;;10336180;28;20109;-78
2021/10/29 00:05:20;;;;;;;8.20;6.57;;;;;;;;;;10336445;28;20120;-77
2021/10/29 00:10:20;;;;;;;13.18;8.20;;;;;;;;;;10334916;28;20030;-78
2021/10/29 00:15:21;;;;;;;13.85;7.25;;;;;;;;;;10337711;28;20054;-78
2021/10/29 00:20:21;;;;;;;7.97;7.10;;;;;;;;;;10337330;28;20310;-78
2021/10/29 00:25:21;;;;;;;25.60;7.40;;;;;;;;;;10334952;28;20323;-78
2021/10/29 00:30:22;;;;;;;17.67;7.25;;;;;;;;;;10335981;28;20427;-77
2021/10/29 00:35:22;;;;;;;9.80;8.48;;;;;;;;;;10350968;28;20048;-77
2021/10/29 00:40:23;;;;;;;14.00;6.13;;;;;;;;;;10335728;28;20030;-78
2021/10/29 00:45:23;;;;;;;9.15;7.07;;;;;;;;;;10335544;28;20038;-77
2021/10/29 00:50:23;;;;;;;6.90;6.30;;;;;;;;;;10335469;28;20030;-77
2021/10/29 00:55:23;;;;;;;12.02;7.40;;;;;;;;;;10335812;28;20034;-78
2021/10/29 01:00:24;;;;;;;11.27;8.07;;;;;;;;;;10334571;28;20034;-78
2021/10/29 01:05:24;;;;;;;9.00;7.37;;;;;;;;;;10333533;28;20085;-78
2021/10/29 01:10:27;;;;;;;9.70;6.97;;;;;;;;;;10333340;28;20294;-77
2021/10/29 01:15:27;;;;;;;9.02;7.85;;;;;;;;;;10334621;28;20022;-78
2021/10/29 01:20:27;;;;;;;12.50;8.20;;;;;;;;;;10349723;28;20084;-77
2021/10/29 01:25:28;;;;;;;6.90;5.78;;;;;;;;;;10332992;28;20034;-78
2021/10/29 01:30:28;;;;;;;13.37;6.90;;;;;;;;;;10333689;28;20141;-77
2021/10/29 01:35:28;;;;;;;7.57;6.30;;;;;;;;;;10333924;28;20300;-76
2021/10/29 01:40:29;;;;;;;8.93;7.80;;;;;;;;;;10334019;28;20109;-77
2021/10/29 01:45:29;;;;;;;11.13;8.02;;;;;;;;;;10334467;28;20022;-76
2021/10/29 01:50:29;;;;;;;7.93;6.60;;;;;;;;;;10334745;28;20137;-76
2021/10/29 01:55:29;;;;;;;12.23;6.65;;;;;;;;;;10334074;28;20057;-76
2021/10/29 02:00:30;;;;;;;13.63;7.55;;;;;;;;;;10332586;28;20403;-76
2021/10/29 02:05:30;;;;;;;9.00;6.77;;;;;;;;;;10333234;28;20050;-76
2021/10/29 02:10:30;;;;;;;13.55;8.05;;;;;;;;;;10333558;28;20264;-76
2021/10/29 02:15:31;;;;;;;11.38;8.18;;;;;;;;;;10333118;28;20034;-76
2021/10/29 02:20:31;;;;;;;10.05;6.88;;;;;;;;;;10336510;28;20378;-76
2021/10/29 02:25:32;;;;;;;7.47;6.80;;;;;;;;;;10356305;28;20124;-76
2021/10/29 02:30:32;;;;;;;7.35;5.88;;;;;;;;;;10340924;28;20034;-76
2021/10/29 02:35:32;;;;;;;8.18;7.32;;;;;;;;;;10340078;28;20112;-76
2021/10/29 02:40:32;;;;;;;11.63;6.65;;;;;;;;;;10354950;28;20395;-77
2021/10/29 02:45:33;;;;;;;10.15;7.22;;;;;;;;;;10339850;28;20084;-76
2021/10/29 02:50:33;;;;;;;9.70;6.82;;;;;;;;;;10340122;28;20065;-76
2021/10/29 02:55:33;;;;;;;12.50;7.35;;;;;;;;;;10340088;28;20042;-76
2021/10/29 03:00:33;;;;;;;11.05;7.25;;;;;;;;;;10345432;28;20260;-76
2021/10/29 03:05:37;;;;;;;8.32;7.00;;;;;;;;;;10351070;28;20137;-76
2021/10/29 03:10:37;;;;;;;11.05;6.28;;;;;;;;;;10340262;28;20034;-76
2021/10/29 03:15:37;;;;;;;9.23;7.10;;;;;;;;;;10338384;28;20027;-76
2021/10/29 03:20:38;;;;;;;7.07;5.60;;;;;;;;;;10337658;28;20034;-76
2021/10/29 03:25:38;;;;;;;9.40;7.05;;;;;;;;;;10337436;28;20030;-76
2021/10/29 03:30:38;;;;;;;9.55;7.88;;;;;;;;;;10336778;28;20038;-75
2021/10/29 03:35:39;;;;;;;7.90;7.10;;;;;;;;;;10337720;28;20030;-76
2021/10/29 03:45:54;;;;;;;8.18;7.35;;;;;;;;;;10338256;28;20088;-76
2021/10/29 03:56:28;;;;;;;10.32;8.13;;;;;;;;;;10326819;28;20034;-75
2021/10/29 04:01:28;;;;;;;11.02;7.68;;;;;;;;;;10352082;28;20027;-76
2021/10/29 04:06:28;;;;;;;8.43;7.63;;;;;;;;;;10351829;28;20065;-76
2021/10/29 04:11:35;;;;;;;10.38;8.07;;;;;;;;;;10337892;28;20022;-76
2021/10/29 04:16:38;;;;;;;12.63;7.47;;;;;;;;;;10337307;28;20120;-76
2021/10/29 04:21:39;;;;;;;16.35;7.82;;;;;;;;;;10351857;28;20024;-76
2021/10/29 04:26:39;;;;;;;9.63;6.93;;;;;;;;;;10336316;28;20109;-74
2021/10/29 04:31:48;;;;;;;12.65;7.20;;;;;;;;;;10336640;28;20125;-74
2021/10/29 04:36:48;;;;;;;8.25;6.65;;;;;;;;;;10337617;28;20033;-75
2021/10/29 04:41:50;;;;;;;7.90;6.47;;;;;;;;;;10336164;28;20487;-74
2021/10/29 04:46:50;;;;;;;11.43;6.78;;;;;;;;;;10350554;28;20018;-74
2021/10/29 04:51:50;;;;;;;9.77;7.03;;;;;;;;;;10336685;28;20384;-74
2021/10/29 04:56:51;;;;;;;10.40;7.03;;;;;;;;;;10350410;28;20026;-76
2021/10/29 05:01:51;;;;;;;9.65;7.60;;;;;;;;;;10335059;28;20030;-76
2021/10/29 05:06:51;;;;;;;6.67;6.03;;;;;;;;;;10335732;28;20042;-76
2021/10/29 05:11:52;;;;;;;12.13;7.90;;;;;;;;;;10350099;28;20252;-76
2021/10/29 05:16:52;;;;;;;8.07;7.07;;;;;;;;;;10334892;28;20482;-76
2021/10/29 05:21:52;;;;;;;12.40;7.05;;;;;;;;;;10335928;28;20030;-77
2021/10/29 05:26:52;;;;;;;9.68;5.85;;;;;;;;;;10337164;28;20448;-77
2021/10/29 05:31:53;;;;;;;15.27;7.65;;;;;;;;;;10354730;28;20105;-76
2021/10/29 05:36:55;;;;;;;7.70;6.90;;;;;;;;;;10340760;28;20110;-77
2021/10/29 05:41:55;;;;;;;10.13;6.35;;;;;;;;;;10334252;28;20026;-76
2021/10/29 05:46:56;;;;;;;9.02;7.15;;;;;;;;;;10334414;28;20061;-76
2021/10/29 05:51:57;;;;;;;11.73;6.65;;;;;;;;;;10350826;28;20400;-76
2021/10/29 05:56:57;;;;;;;12.00;5.72;;;;;;;;;;10354573;28;20022;-76
2021/10/29 06:01:58;;;;;;;10.10;5.85;;;;;;;;;;10341968;28;20444;-76
2021/10/29 06:06:58;;;;;;;7.22;6.45;;;;;;;;;;10340084;28;20042;-77
2021/10/29 06:11:58;;;;;;;8.38;7.07;;;;;;;;;;10342187;28;20028;-76
2021/10/29 06:16:59;;;;;;;8.63;7.15;;;;;;;;;;10356253;28;20448;-76
2021/10/29 06:22:09;;;;;;;8.73;6.05;;;;;;;;;;10341769;28;20363;-76
2021/10/29 06:32:20;;;;;;;16.33;6.25;;;;;;;;;;10342461;28;20061;-77
2021/10/29 06:37:20;;;;;;;10.85;7.05;;;;;;;;;;10339352;28;20061;-76
2021/10/29 06:42:29;;;;;;;12.52;7.53;;;;;;;;;;10356093;28;20033;-76
2021/10/29 06:47:39;;;;;;;6.05;5.53;;;;;;;;;;10339997;28;20026;-77
2021/10/29 07:40:15;;;;;;;13.02;5.45;;;;;;;;;;10338427;28;20042;-76
2021/10/29 07:45:16;;;;;;;6.18;4.05;;;;;;;;;;10338211;28;20096;-77
2021/10/29 07:50:16;;;;;;;5.97;5.10;;;;;;;;;;10337527;28;20026;-77
2021/10/29 07:55:17;;;;;;;4.60;4.20;;;;;;;;;;10353042;28;20482;-76
2021/10/29 08:00:18;;;;;;;5.25;4.75;;;;;;;;;;10353768;28;20471;-76
2021/10/29 08:05:19;;;;;;;7.53;4.70;;;;;;;;;;10337642;28;20058;-76
2021/10/29 08:10:19;;;;;;;5.32;4.55;;;;;;;;;;10338514;28;20468;-77
2021/10/29 08:15:19;;;;;;;3.97;3.67;;;;;;;;;;10352095;28;20021;-77
2021/10/29 08:20:21;;;;;;;8.20;4.73;;;;;;;;;;10334375;28;20467;-77
2021/10/29 08:25:21;;;;;;;5.57;4.50;;;;;;;;;;10351635;28;20330;-77
2021/10/29 08:30:23;;;;;;;7.18;4.55;;;;;;;;;;10336002;28;20407;-77
2021/10/29 08:35:23;;;;;;;12.10;5.57;;;;;;;;;;10335346;28;20053;-77
2021/10/29 08:40:25;;;;;;;10.35;5.70;;;;;;;;;;10335583;28;20050;-77
2021/10/29 08:45:27;;;;;;;5.97;3.70;;;;;;;;;;10350534;28;20034;-76
2021/10/29 08:50:27;;;;;;;8.55;4.72;;;;;;;;;;10350419;28;20363;-76
2021/10/29 08:55:29;;;;;;;11.57;4.90;;;;;;;;;;10350995;28;20026;-77
2021/10/29 09:00:32;;;;;;;12.40;5.05;;;;;;;;;;10349913;28;20019;-77
2021/10/29 09:31:58;;;;;;;6.05;4.35;;;;;;;;;;10334141;28;20031;-76
2021/10/29 09:36:59;;;;;;;4.05;3.72;;;;;;;;;;10333308;28;20021;-76
2021/10/29 09:42:00;;;;;;;8.53;4.40;;;;;;;;;;10335154;28;20109;-77
2021/10/29 09:47:01;;;;;;;10.95;4.88;;;;;;;;;;10335446;28;20268;-77
2021/10/29 09:57:11;;;;;;;4.20;3.90;;;;;;;;;;10334175;28;20025;-76
2021/10/29 10:02:15;;;;;;;6.60;3.85;;;;;;;;;;10349148;28;20117;-78
2021/10/29 10:07:17;;;;;;;8.45;4.25;;;;;;;;;;10348754;28;20046;-77
2021/10/29 10:12:21;;;;;;;4.25;3.95;;;;;;;;;;10334102;28;20033;-76
2021/10/29 10:17:22;;;;;;;9.98;3.97;;;;;;;;;;10334045;28;20101;-77
2021/10/29 10:22:25;;;;;;;20.30;3.45;;;;;;;;;;10334081;28;20185;-77
2021/10/29 10:43:57;;;;;;;6.68;4.22;;;;;;;;;;10355093;28;20014;-77
2021/10/29 10:54:06;;;;;;;7.95;4.22;;;;;;;;;;10356753;28;20105;-77
2021/10/29 10:59:42;;;;;;;10.07;4.15;;;;;;;;;;10342308;28;20026;-77
2021/10/29 11:04:54;;;;;;;4.38;3.47;;;;;;;;;;10339964;28;20447;-78
2021/10/29 11:09:58;;;;;;;9.95;4.45;;;;;;;;;;10338393;28;20399;-77
2021/10/29 11:15:08;;;;;;;4.50;3.85;;;;;;;;;;10339975;28;20022;-77
2021/10/29 11:20:10;;;;;;;5.20;3.95;;;;;;;;;;10338571;28;20391;-77
2021/10/29 11:25:17;;;;;;;9.05;4.72;;;;;;;;;;10339789;28;20030;-77
2021/10/29 11:30:17;;;;;;;6.18;3.45;;;;;;;;;;10354497;28;20026;-77
2021/10/29 11:35:18;;;;;;;4.30;3.58;;;;;;;;;;10354637;28;20018;-77
2021/10/29 11:40:18;;;;;;;11.30;4.05;;;;;;;;;;10338718;28;20086;-77
2021/10/29 11:45:28;;;;;;;3.65;3.35;;;;;;;;;;10338459;28;20037;-77
2021/10/29 11:50:29;;;;;;;11.40;5.35;;;;;;;;;;10338474;28;20015;-77
2021/10/29 11:55:40;;;;;;;9.25;3.90;;;;;;;;;;10336836;28;20023;-77
2021/10/29 12:00:55;;;;;;;4.82;3.60;;;;;;;;;;10338411;28;20026;-77
2021/10/29 12:06:11;;;;;;;7.18;3.80;;;;;;;;;;10337259;28;20058;-77
2021/10/29 12:11:12;;;;;;;12.98;4.50;;;;;;;;;;10337486;28;20077;-77
2021/10/29 12:16:16;;;;;;;2.92;2.67;;;;;;;;;;10352850;28;20431;-77
2021/10/29 12:21:18;;;;;;;3.17;2.72;;;;;;;;;;10336355;28;20081;-77
2021/10/29 12:26:20;;;;;;;3.85;3.17;;;;;;;;;;10335018;28;20460;-77
2021/10/29 12:31:38;;;;;;;9.23;3.25;;;;;;;;;;10336294;28;20030;-77
2021/10/29 12:37:05;;;;;;;7.93;3.55;;;;;;;;;;10349313;28;20531;-76
2021/10/29 12:53:00;;;;;;;7.50;3.35;;;;;;;;;;10348270;28;20030;-77
2021/10/29 13:03:37;;;;;;;3.75;3.45;;;;;;;;;;10303081;28;20038;-77
2021/10/29 13:08:39;;;;;;;4.80;4.07;;;;;;;;;;10355975;28;20081;-76
2021/10/29 13:13:43;;;;;;;9.48;3.83;;;;;;;;;;10379291;28;20077;-77
2021/10/29 13:34:13;;;;;;;10.25;4.20;;;;;;;;;;10335905;28;20440;-77
2021/10/29 13:35:09;;;;;;;4.30;3.90;;;;;;;;;;10335210;28;20114;-77
2021/10/29 13:51:08;;;;;;;14.20;4.88;;;;;;;;;;10347348;28;20097;-77
2021/10/29 13:57:05;;;;;;;16.52;4.68;;;;;;;;;;10333299;28;20033;-76
2021/10/29 14:01:53;;;;;;;17.25;3.90;;;;;;;;;;10340933;28;20049;-77
2021/10/29 14:28:17;;;;;;;8.88;3.28;;;;;;;;;;10340871;28;20379;-77
2021/10/29 14:33:29;;;;;;;2.88;2.58;;;;;;;;;;10340496;28;20030;-77
2021/10/29 14:43:53;;;;;;;9.60;5.15;;;;;;;;;;10340937;28;20474;-77
2021/10/29 14:49:02;;;;;;;10.85;4.57;;;;;;;;;;10352786;28;20034;-76
2021/10/29 15:42:03;;;;;;;3.08;2.75;;;;;;;;;;10358383;28;20026;-76
2021/10/29 15:47:07;;;;;;;2.33;2.13;;;;;;;;;;10357846;28;20057;-77
2021/10/29 15:52:18;;;;;;;5.25;3.15;;;;;;;;;;10354772;28;20029;-76
2021/10/29 15:57:25;;;;;;;4.75;2.90;;;;;;;;;;10339141;28;20062;-76
2021/10/29 16:18:05;;;;;;;2.72;2.53;;;;;;;;;;10350023;28;20026;-76
2021/10/29 16:23:06;;;;;;;5.05;3.28;;;;;;;;;;10336832;28;20117;-76
2021/10/29 16:28:12;;;;;;;4.53;3.55;;;;;;;;;;10334724;28;20183;-76
2021/10/29 16:33:24;;;;;;;3.05;2.83;;;;;;;;;;10336540;28;20035;-76
2021/10/29 16:38:24;;;;;;;4.53;3.55;;;;;;;;;;10336704;28;20128;-76
2021/10/29 16:43:25;;;;;;;4.47;3.80;;;;;;;;;;10351323;28;20042;-76
2021/10/29 16:48:25;;;;;;;3.72;2.75;;;;;;;;;;10336519;28;20026;-75
2021/10/29 16:53:25;;;;;;;3.25;2.95;;;;;;;;;;10351965;28;20030;-76
2021/10/29 16:58:25;;;;;;;9.30;3.47;;;;;;;;;;10334563;28;20411;-75
2021/10/29 17:03:26;;;;;;;5.88;3.17;;;;;;;;;;10335948;28;20041;-76
2021/10/29 17:08:26;;;;;;;3.58;2.45;;;;;;;;;;10334890;28;20078;-76
2021/10/29 17:13:26;;;;;;;3.05;2.85;;;;;;;;;;10335624;28;20030;-75
2021/10/29 17:18:28;;;;;;;5.40;2.30;;;;;;;;;;10349853;28;20023;-76
2021/10/29 17:23:29;;;;;;;3.88;3.10;;;;;;;;;;10333974;28;20271;-76
2021/10/29 17:28:29;;;;;;;7.32;3.58;;;;;;;;;;10350341;28;20041;-76
2021/10/29 17:33:30;;;;;;;3.80;3.15;;;;;;;;;;10334999;28;20121;-76
2021/10/29 17:38:30;;;;;;;3.47;3.15;;;;;;;;;;10350886;28;20033;-76
2021/10/29 17:43:30;;;;;;;4.47;4.07;;;;;;;;;;10335064;28;20027;-76
2021/10/29 17:48:31;;;;;;;6.43;2.80;;;;;;;;;;10349618;28;20034;-76
2021/10/29 17:53:32;;;;;;;9.30;3.33;;;;;;;;;;10355381;28;20354;-76
2021/10/29 17:58:33;;;;;;;5.75;3.83;;;;;;;;;;10343329;28;20093;-76
2021/10/29 18:03:33;;;;;;;3.78;3.47;;;;;;;;;;10358997;28;20072;-76
2021/10/29 18:08:40;;;;;;;12.52;3.83;;;;;;;;;;10341466;28;20066;-76
2021/10/29 18:13:41;;;;;;;10.57;4.97;;;;;;;;;;10347348;28;20466;-76
2021/10/29 18:18:41;;;;;;;7.50;3.78;;;;;;;;;;10350814;28;20093;-76
2021/10/29 18:23:41;;;;;;;3.83;3.25;;;;;;;;;;10357390;28;20081;-75
2021/10/29 18:28:41;;;;;;;29.30;5.23;;;;;;;;;;10342039;28;20030;-76
2021/10/29 18:33:42;;;;;;;13.93;6.03;;;;;;;;;;10340632;28;20363;-76
2021/10/29 18:38:42;;;;;;;6.38;4.25;;;;;;;;;;10340944;28;20027;-76
2021/10/29 18:43:42;;;;;;;3.80;3.47;;;;;;;;;;10339633;28;20088;-76
2021/10/29 18:48:42;;;;;;;5.38;3.17;;;;;;;;;;10340534;28;20030;-76
2021/10/29 18:53:43;;;;;;;9.98;4.82;;;;;;;;;;10355678;28;20030;-76
2021/10/29 18:58:43;;;;;;;13.85;5.40;;;;;;;;;;10339865;28;20022;-76
2021/10/29 19:03:43;;;;;;;6.43;4.53;;;;;;;;;;10339241;28;20033;-76
2021/10/29 19:08:44;;;;;;;13.52;5.18;;;;;;;;;;10341262;28;20054;-76
2021/10/29 19:13:44;;;;;;;7.28;5.20;;;;;;;;;;10338514;28;20374;-76
2021/10/29 19:18:44;;;;;;;10.73;5.18;;;;;;;;;;10339760;28;20206;-76
2021/10/29 19:23:45;;;;;;;9.40;5.43;;;;;;;;;;10339716;28;20141;-76
2021/10/29 19:28:45;;;;;;;11.65;5.70;;;;;;;;;;10338940;28;20452;-76
2021/10/29 19:33:46;;;;;;;5.90;4.93;;;;;;;;;;10339529;28;20034;-76
2021/10/29 19:39:01;;;;;;;8.90;4.47;;;;;;;;;;10339363;28;20042;-76
2021/10/29 19:44:01;;;;;;;8.45;5.95;;;;;;;;;;10338801;28;20109;-76
2021/10/29 19:49:01;;;;;;;11.17;5.17;;;;;;;;;;10338667;28;20168;-76
2021/10/29 19:54:02;;;;;;;8.80;6.28;;;;;;;;;;10338917;28;20594;-77
2021/10/29 19:59:07;;;;;;;14.18;6.18;;;;;;;;;;10339014;28;20022;-77
2021/10/29 20:04:08;;;;;;;6.13;4.95;;;;;;;;;;10352350;28;20033;-75
2021/10/29 20:09:08;;;;;;;10.32;5.90;;;;;;;;;;10337366;28;20061;-75
2021/10/29 20:14:08;;;;;;;9.32;6.45;;;;;;;;;;10351551;28;20353;-75
2021/10/29 20:19:08;;;;;;;11.32;6.95;;;;;;;;;;10337081;28;20085;-75
2021/10/29 20:24:10;;;;;;;6.18;5.57;;;;;;;;;;10337679;28;20092;-75
2021/10/29 20:29:12;;;;;;;6.20;5.20;;;;;;;;;;10351837;28;20027;-75
2021/10/29 20:34:12;;;;;;;15.40;7.18;;;;;;;;;;10336459;28;20022;-75
2021/10/29 20:39:12;;;;;;;9.10;6.13;;;;;;;;;;10337527;28;20101;-75
2021/10/29 20:44:12;;;;;;;5.70;5.15;;;;;;;;;;10340298;28;20559;-75
2021/10/29 20:49:15;;;;;;;7.28;5.68;;;;;;;;;;10354019;28;20136;-75
2021/10/29 20:54:19;;;;;;;18.13;6.35;;;;;;;;;;10337088;28;20359;-75
2021/10/29 20:59:20;;;;;;;15.00;6.88;;;;;;;;;;10350637;28;20019;-75
2021/10/29 21:04:20;;;;;;;8.90;5.60;;;;;;;;;;10335051;28;20026;-75
2021/10/29 21:09:20;;;;;;;10.93;6.45;;;;;;;;;;10350472;28;20364;-75
2021/10/29 21:14:20;;;;;;;7.38;5.03;;;;;;;;;;10335300;28;20076;-75
2021/10/29 21:19:22;;;;;;;16.15;6.20;;;;;;;;;;10333775;28;20030;-75
2021/10/29 21:24:23;;;;;;;7.65;5.22;;;;;;;;;;10333440;28;20030;-75
2021/10/29 21:29:24;;;;;;;8.93;6.03;;;;;;;;;;10333190;28;20455;-76
2021/10/29 21:34:25;;;;;;;15.20;7.88;;;;;;;;;;10350142;28;20028;-75
2021/10/29 21:39:25;;;;;;;8.60;6.15;;;;;;;;;;10333480;28;20030;-76
2021/10/29 21:44:25;;;;;;;14.83;6.97;;;;;;;;;;10350380;28;20030;-75
2021/10/29 21:49:25;;;;;;;11.40;6.60;;;;;;;;;;10334961;28;20303;-75
2021/10/29 21:54:26;;;;;;;8.50;7.53;;;;;;;;;;10333274;28;20041;-75
2021/10/29 21:59:26;;;;;;;12.43;8.20;;;;;;;;;;10333588;28;20041;-75
2021/10/29 22:04:26;;;;;;;10.98;7.18;;;;;;;;;;10349679;28;20488;-75
2021/10/29 22:09:27;;;;;;;10.68;8.43;;;;;;;;;;10333654;28;20089;-75
2021/10/29 22:14:28;;;;;;;11.45;8.15;;;;;;;;;;10350245;28;20022;-76
2021/10/29 22:19:28;;;;;;;14.98;7.57;;;;;;;;;;10332789;28;20031;-75
2021/10/29 22:24:28;;;;;;;8.65;7.65;;;;;;;;;;10333719;28;20042;-75
2021/10/29 22:29:29;;;;;;;8.43;7.45;;;;;;;;;;10333056;28;20506;-75
2021/10/29 22:34:29;;;;;;;14.63;7.47;;;;;;;;;;10333623;28;20467;-75
2021/10/29 22:39:29;;;;;;;9.23;7.10;;;;;;;;;;10337619;28;20038;-76
2021/10/29 22:44:30;;;;;;;8.57;7.05;;;;;;;;;;10340842;28;20034;-75
2021/10/29 22:49:30;;;;;;;9.35;7.05;;;;;;;;;;10339739;28;20030;-75
2021/10/29 22:54:30;;;;;;;18.75;7.32;;;;;;;;;;10340576;28;20427;-76
2021/10/29 22:59:31;;;;;;;10.02;7.75;;;;;;;;;;10339019;28;20117;-75
2021/10/29 23:04:33;;;;;;;10.35;7.30;;;;;;;;;;10339457;28;20041;-75
2021/10/29 23:09:33;;;;;;;9.57;7.53;;;;;;;;;;10340450;28;20149;-75
2021/10/29 23:14:33;;;;;;;9.25;7.13;;;;;;;;;;10339302;28;20105;-75
2021/10/29 23:19:34;;;;;;;8.32;7.50;;;;;;;;;;10355724;28;20030;-76
2021/10/29 23:24:34;;;;;;;14.00;9.18;;;;;;;;;;10343106;28;20374;-75
2021/10/29 23:29:34;;;;;;;10.45;8.93;;;;;;;;;;10342728;28;20029;-76
2021/10/29 23:34:34;;;;;;;8.67;7.87;;;;;;;;;;10343913;28;20030;-75
2021/10/29 23:39:35;;;;;;;10.95;8.65;;;;;;;;;;10343233;28;20296;-75
2021/10/29 23:44:35;;;;;;;11.52;9.20;;;;;;;;;;10340599;28;20035;-75
2021/10/29 23:49:39;;;;;;;14.80;9.57;;;;;;;;;;10337814;28;20026;-76
2021/10/29 23:54:39;;;;;;;10.48;8.10;;;;;;;;;;10338088;28;20371;-76
2021/10/29 23:59:39;;;;;;;11.20;9.00;;;;;;;;;;10336653;28;20495;-76
